Time;durP1;ratioP1;P1;durP2;ratioP2;P2;SDS_P1;SDS_P2;PMS_P1;PMS_P2;Temp;Humidity;BMP_temperature;BMP_pressure;BME280_temperature;BME280_humidity;BME280_pressure;Samples;Min_cycle;Max_cycle;Signal;HPM_P1;HPM_P2
2023/08/09 00:00:32;;;;;;;1999.90;999.90;;;16.00;99.90;;;;;;5073733;28;20450;-77
2023/08/09 00:03:02;;;;;;;1999.90;999.90;;;16.00;99.90;;;;;;5072911;28;20556;-76
2023/08/09 00:05:27;;;;;;;1999.90;999.90;;;16.00;99.90;;;;;;5073460;28;20406;-76
2023/08/09 00:07:53;;;;;;;1999.90;999.90;;;16.00;99.90;;;;;;5073209;28;20483;-77
2023/08/09 00:10:19;;;;;;;1999.90;999.90;;;16.00;99.90;;;;;;5073161;28;20720;-76
2023/08/09 00:12:45;;;;;;;1999.90;999.90;;;16.00;99.90;;;;;;5072993;28;20210;-77
2023/08/09 00:15:10;;;;;;;1999.90;999.90;;;16.10;99.90;;;;;;5073521;28;20495;-76
2023/08/09 00:17:36;;;;;;;1999.90;999.90;;;16.10;99.90;;;;;;5073695;28;20204;-77
2023/08/09 00:20:02;;;;;;;1999.90;999.90;;;16.10;99.90;;;;;;5073522;28;20190;-77
2023/08/09 00:22:28;;;;;;;1999.90;999.90;;;16.00;99.90;;;;;;5073036;28;20193;-76
2023/08/09 00:24:53;;;;;;;1999.90;999.90;;;16.00;99.90;;;;;;5073145;28;20890;-77
2023/08/09 00:27:19;;;;;;;1999.90;999.90;;;16.00;99.90;;;;;;5073148;28;20170;-76
2023/08/09 00:29:45;;;;;;;1999.90;999.90;;;16.00;99.90;;;;;;5072639;28;20166;-76
2023/08/09 00:32:10;;;;;;;1999.90;999.90;;;16.00;99.90;;;;;;5072539;28;20215;-77
2023/08/09 00:34:36;;;;;;;1999.90;999.90;;;16.00;99.90;;;;;;5072585;28;20684;-76
2023/08/09 00:37:02;;;;;;;1999.90;999.90;;;16.00;99.90;;;;;;5072839;28;20192;-77
2023/08/09 00:39:28;;;;;;;1999.90;999.90;;;16.00;99.90;;;;;;5072753;28;20256;-77
2023/08/09 00:41:53;;;;;;;1999.90;999.90;;;15.90;99.90;;;;;;5073929;28;20175;-78
2023/08/09 00:44:19;;;;;;;1999.90;999.90;;;15.90;99.90;;;;;;5074635;28;20941;-78
2023/08/09 00:46:44;;;;;;;1999.90;999.90;;;15.90;99.90;;;;;;5074911;28;20170;-77
2023/08/09 00:49:10;;;;;;;1999.90;999.90;;;15.80;99.90;;;;;;5075767;28;20176;-77
2023/08/09 00:51:37;;;;;;;1999.90;999.90;;;15.80;99.90;;;;;;5075077;28;20186;-78
2023/08/09 00:54:02;;;;;;;1999.90;999.90;;;15.80;99.90;;;;;;5076124;28;20775;-78
2023/08/09 00:56:28;;;;;;;1999.90;999.90;;;15.70;99.90;;;;;;5074510;28;20456;-77
2023/08/09 00:58:54;;;;;;;1999.90;999.90;;;15.70;99.90;;;;;;5076862;28;20162;-78
2023/08/09 01:01:20;;;;;;;1999.90;999.90;;;15.70;99.90;;;;;;5075502;28;21010;-78
2023/08/09 01:03:45;;;;;;;1999.90;999.90;;;15.70;99.90;;;;;;5076603;28;20247;-78
2023/08/09 01:06:31;;;;;;;1999.90;999.90;;;15.70;99.90;;;;;;5076183;28;20249;-79
2023/08/09 01:08:59;;;;;;;1999.90;999.90;;;15.70;99.90;;;;;;5058115;28;20547;-78
2023/08/09 01:11:51;;;;;;;1999.90;999.90;;;15.70;99.90;;;;;;5075394;28;20475;-78
2023/08/09 01:14:20;;;;;;;1999.90;999.90;;;15.80;99.90;;;;;;5076687;28;20402;-78
2023/08/09 01:16:46;;;;;;;1999.90;999.90;;;15.70;99.90;;;;;;5076992;28;20463;-78
2023/08/09 01:19:29;;;;;;;1999.90;999.90;;;15.70;99.90;;;;;;5076188;28;20406;-79
2023/08/09 01:21:59;;;;;;;1999.90;999.90;;;15.80;99.90;;;;;;5075800;28;20417;-78
2023/08/09 01:24:25;;;;;;;1999.90;999.90;;;15.80;99.90;;;;;;5076879;28;20391;-77
2023/08/09 01:26:50;;;;;;;1999.90;999.90;;;15.80;99.90;;;;;;5076998;28;20420;-79
2023/08/09 01:29:16;;;;;;;1999.90;999.90;;;15.70;99.90;;;;;;5076631;28;20204;-78
2023/08/09 01:31:41;;;;;;;1999.90;999.90;;;15.80;99.90;;;;;;5075912;28;20716;-78
2023/08/09 01:34:07;;;;;;;1999.90;999.90;;;15.80;99.90;;;;;;5076183;28;20170;-78
2023/08/09 01:36:36;;;;;;;1999.90;999.90;;;15.80;99.90;;;;;;5076430;28;20758;-78
2023/08/09 01:39:07;;;;;;;1999.90;999.90;;;15.80;99.90;;;;;;5076109;28;20167;-79
2023/08/09 01:41:34;;;;;;;1999.90;999.90;;;15.80;99.90;;;;;;5057098;28;20440;-78
2023/08/09 01:43:59;;;;;;;1999.90;999.90;;;15.80;99.90;;;;;;5072524;28;20902;-77
2023/08/09 01:46:26;;;;;;;1999.90;999.90;;;15.90;99.90;;;;;;5071530;28;20409;-77
2023/08/09 01:48:51;;;;;;;1999.90;999.90;;;15.90;99.90;;;;;;5071363;28;20171;-77
2023/08/09 01:51:17;;;;;;;1999.90;999.90;;;15.90;99.90;;;;;;5071484;28;20991;-77
2023/08/09 01:53:42;;;;;;;1999.90;999.90;;;15.90;99.90;;;;;;5071442;28;20649;-77
2023/08/09 01:56:08;;;;;;;1999.90;999.90;;;15.90;99.90;;;;;;5071440;28;20205;-77
2023/08/09 01:58:34;;;;;;;1999.90;999.90;;;15.90;99.90;;;;;;5070328;28;20199;-77
2023/08/09 02:00:59;;;;;;;1999.90;999.90;;;15.90;99.90;;;;;;5070962;28;20219;-77
2023/08/09 02:03:25;;;;;;;1999.90;999.90;;;15.90;99.90;;;;;;5071298;28;20221;-78
2023/08/09 02:05:52;;;;;;;1999.90;999.90;;;15.90;99.90;;;;;;5071364;28;20590;-78
2023/08/09 02:08:18;;;;;;;1999.90;999.90;;;15.90;99.90;;;;;;5075223;28;20174;-78
2023/08/09 02:10:44;;;;;;;1999.90;999.90;;;15.80;99.90;;;;;;5058265;28;20437;-78
2023/08/09 02:13:09;;;;;;;1999.90;999.90;;;15.90;99.90;;;;;;5057791;28;20451;-78
2023/08/09 02:15:35;;;;;;;1999.90;999.90;;;15.80;99.90;;;;;;5078983;28;20159;-77
2023/08/09 02:18:01;;;;;;;1999.90;999.90;;;15.40;99.90;;;;;;5077386;28;20164;-77
2023/08/09 02:20:28;;;;;;;1999.90;999.90;;;15.10;99.90;;;;;;5076878;28;20554;-78
2023/08/09 02:22:53;;;;;;;1999.90;999.90;;;15.00;99.90;;;;;;5076457;28;20426;-77
2023/08/09 02:25:19;;;;;;;1999.90;999.90;;;14.80;99.90;;;;;;5076462;28;20887;-77
2023/08/09 02:27:46;;;;;;;1999.90;999.90;;;14.70;99.90;;;;;;5075832;28;20176;-76
2023/08/09 02:30:12;;;;;;;1999.90;999.90;;;14.60;99.90;;;;;;5075913;28;20221;-77
2023/08/09 02:32:38;;;;;;;1999.90;999.90;;;14.60;99.90;;;;;;5075280;28;20405;-77
2023/08/09 02:35:05;;;;;;;1999.90;999.90;;;14.60;99.90;;;;;;5075416;28;20492;-77
2023/08/09 02:37:30;;;;;;;1999.90;999.90;;;14.50;99.90;;;;;;5075233;28;20451;-76
2023/08/09 02:39:56;;;;;;;1999.90;999.90;;;14.50;99.90;;;;;;5075560;28;20397;-77
2023/08/09 02:42:22;;;;;;;1999.90;999.90;;;14.50;99.90;;;;;;5075194;28;20163;-76
2023/08/09 02:44:48;;;;;;;1999.90;999.90;;;14.50;99.90;;;;;;5074064;28;20194;-77
2023/08/09 02:47:13;;;;;;;1999.90;999.90;;;14.50;99.90;;;;;;5075695;28;20696;-77
2023/08/09 02:49:39;;;;;;;1999.90;999.90;;;14.10;99.90;;;;;;5074979;28;20214;-76
2023/08/09 02:52:05;;;;;;;1999.90;999.90;;;14.40;99.90;;;;;;5074656;28;20166;-77
2023/08/09 02:54:30;;;;;;;1999.90;999.90;;;14.30;99.90;;;;;;5074547;28;20175;-75
2023/08/09 02:56:56;;;;;;;1999.90;999.90;;;14.30;99.90;;;;;;5073984;28;20665;-75
2023/08/09 02:59:21;;;;;;;1999.90;999.90;;;14.30;99.90;;;;;;5074020;28;20242;-76
2023/08/09 03:01:48;;;;;;;1999.90;999.90;;;14.30;99.90;;;;;;5073589;28;20568;-76
2023/08/09 03:04:13;;;;;;;1999.90;999.90;;;14.20;99.90;;;;;;5073990;28;20581;-76
2023/08/09 03:06:39;;;;;;;1999.90;999.90;;;14.40;99.90;;;;;;5073916;28;20407;-76
2023/08/09 03:09:06;;;;;;;1999.90;999.90;;;14.40;99.90;;;;;;5073880;28;20270;-76
2023/08/09 03:11:31;;;;;;;1999.90;999.90;;;14.40;99.90;;;;;;5073587;28;20493;-76
2023/08/09 03:13:57;;;;;;;1999.90;999.90;;;14.40;99.90;;;;;;5073785;28;20933;-76
2023/08/09 03:16:23;;;;;;;1999.90;999.90;;;14.50;99.90;;;;;;5073594;28;20185;-76
2023/08/09 03:18:49;;;;;;;1999.90;999.90;;;14.60;99.90;;;;;;5073680;28;20280;-76
2023/08/09 03:21:14;;;;;;;1999.90;999.90;;;14.60;99.90;;;;;;5073267;28;20420;-76
2023/08/09 03:23:40;;;;;;;1999.90;999.90;;;14.70;99.90;;;;;;5073580;28;20170;-76
2023/08/09 03:26:06;;;;;;;1999.90;999.90;;;14.80;99.90;;;;;;5072445;28;20169;-76
2023/08/09 03:28:32;;;;;;;1999.90;999.90;;;14.80;99.90;;;;;;5052103;28;20186;-76
2023/08/09 03:30:58;;;;;;;1999.90;999.90;;;14.80;99.90;;;;;;5053122;28;20910;-76
2023/08/09 03:33:25;;;;;;;1999.90;999.90;;;14.80;99.90;;;;;;5053352;28;20436;-76
2023/08/09 03:35:51;;;;;;;1999.90;999.90;;;14.80;99.90;;;;;;5053216;28;20196;-76
2023/08/09 03:38:17;;;;;;;1999.90;999.90;;;14.80;99.90;;;;;;5053745;28;20467;-77
2023/08/09 03:40:42;;;;;;;1999.90;999.90;;;14.90;99.90;;;;;;5053197;28;20933;-77
2023/08/09 03:43:08;;;;;;;1999.90;999.90;;;14.90;99.90;;;;;;5052985;28;20248;-77
2023/08/09 03:45:34;;;;;;;1999.90;999.90;;;14.90;99.90;;;;;;5053112;28;20416;-77
2023/08/09 03:47:59;;;;;;;1999.90;999.90;;;14.90;99.90;;;;;;5053277;28;20187;-77
2023/08/09 03:50:25;;;;;;;1999.90;999.90;;;15.00;99.90;;;;;;5052999;28;20194;-77
2023/08/09 03:52:52;;;;;;;1999.90;999.90;;;15.00;99.90;;;;;;5055557;28;20165;-77
2023/08/09 03:55:17;;;;;;;1999.90;999.90;;;14.90;99.90;;;;;;5055515;28;20433;-77
2023/08/09 03:57:43;;;;;;;1999.90;999.90;;;14.90;99.90;;;;;;5055065;28;20495;-77
2023/08/09 04:00:13;;;;;;;1999.90;999.90;;;14.90;99.90;;;;;;5055294;28;20193;-77
2023/08/09 04:02:39;;;;;;;1999.90;999.90;;;14.90;99.90;;;;;;5055516;28;20400;-76
2023/08/09 04:05:05;;;;;;;1999.90;999.90;;;14.90;99.90;;;;;;5056024;28;20410;-77
2023/08/09 04:07:31;;;;;;;1999.90;999.90;;;14.90;99.90;;;;;;5055774;28;20183;-77
2023/08/09 04:09:56;;;;;;;1999.90;999.90;;;14.90;99.90;;;;;;5055965;28;20246;-77
2023/08/09 04:12:22;;;;;;;1999.90;999.90;;;14.90;99.90;;;;;;5056213;28;20933;-77
2023/08/09 04:14:47;;;;;;;1999.90;999.90;;;14.90;99.90;;;;;;5039374;28;20171;-77
2023/08/09 04:17:13;;;;;;;1999.90;999.90;;;14.90;99.90;;;;;;5057144;28;20274;-77
2023/08/09 04:19:39;;;;;;;1999.90;999.90;;;15.00;99.90;;;;;;5057460;28;20171;-77
2023/08/09 04:22:04;;;;;;;1999.90;999.90;;;15.00;99.90;;;;;;5055882;28;20547;-77
2023/08/09 04:24:30;;;;;;;1999.90;999.90;;;15.00;99.90;;;;;;5066052;28;20538;-77
2023/08/09 04:26:55;;;;;;;1999.90;999.90;;;14.90;99.90;;;;;;5075901;28;20178;-76
2023/08/09 04:29:21;;;;;;;1999.90;999.90;;;14.90;99.90;;;;;;5074759;28;20190;-77
2023/08/09 04:31:48;;;;;;;1999.90;999.90;;;14.90;99.90;;;;;;5076005;28;20558;-77
2023/08/09 04:34:13;;;;;;;1999.90;999.90;;;14.90;99.90;;;;;;5076327;28;20204;-77
2023/08/09 04:36:39;;;;;;;1999.90;999.90;;;14.90;99.90;;;;;;5075559;28;20882;-77
2023/08/09 04:39:08;;;;;;;1999.90;999.90;;;14.90;99.90;;;;;;5076962;28;20244;-77
2023/08/09 04:41:35;;;;;;;1999.90;999.90;;;15.00;99.90;;;;;;5076616;28;20203;-77
2023/08/09 04:44:00;;;;;;;1999.90;999.90;;;15.00;99.90;;;;;;5075160;28;20856;-77
2023/08/09 04:46:26;;;;;;;1999.90;999.90;;;15.00;99.90;;;;;;5076168;28;20405;-77
2023/08/09 04:48:51;;;;;;;1999.90;999.90;;;15.00;99.90;;;;;;5077349;28;20240;-78
2023/08/09 04:51:18;;;;;;;1999.90;999.90;;;15.10;99.90;;;;;;5076556;28;20193;-77
2023/08/09 04:53:44;;;;;;;1999.90;999.90;;;15.10;99.90;;;;;;5078198;28;20273;-78
2023/08/09 04:56:10;;;;;;;1999.90;999.90;;;15.00;99.90;;;;;;5077550;28;20448;-77
2023/08/09 04:58:37;;;;;;;1999.90;999.90;;;15.00;99.90;;;;;;5078081;28;20405;-78
2023/08/09 05:01:03;;;;;;;1999.90;999.90;;;15.10;99.90;;;;;;5076302;28;20786;-78
2023/08/09 05:03:29;;;;;;;1999.90;999.90;;;15.00;99.90;;;;;;5077640;28;20468;-78
2023/08/09 05:05:54;;;;;;;1999.90;999.90;;;15.00;99.90;;;;;;5059920;28;20173;-78
2023/08/09 05:08:20;;;;;;;1999.90;999.90;;;15.00;99.90;;;;;;5071530;28;20205;-78
2023/08/09 05:10:46;;;;;;;1999.90;999.90;;;15.00;99.90;;;;;;5078359;28;20277;-78
2023/08/09 05:13:11;;;;;;;1999.90;999.90;;;15.00;99.90;;;;;;5078028;28;20169;-78
2023/08/09 05:15:37;;;;;;;1999.90;999.90;;;15.10;99.90;;;;;;5078824;28;20200;-77
2023/08/09 05:18:03;;;;;;;1999.90;999.90;;;15.20;99.90;;;;;;5078564;28;20172;-78
2023/08/09 05:20:29;;;;;;;1999.90;999.90;;;15.20;99.90;;;;;;5077495;28;20230;-77
2023/08/09 05:22:54;;;;;;;1999.90;999.90;;;15.30;99.90;;;;;;5076707;28;20922;-78
2023/08/09 05:25:20;;;;;;;1999.90;999.90;;;15.30;99.90;;;;;;5078105;28;20173;-78
2023/08/09 05:27:47;;;;;;;1999.90;999.90;;;15.30;99.90;;;;;;5076440;28;20178;-78
2023/08/09 05:30:14;;;;;;;1999.90;999.90;;;15.40;99.90;;;;;;5077532;28;20197;-76
2023/08/09 05:32:40;;;;;;;1999.90;999.90;;;15.40;99.90;;;;;;5059322;28;20481;-78
2023/08/09 05:35:06;;;;;;;1999.90;999.90;;;15.50;99.90;;;;;;5077327;28;20421;-78
2023/08/09 05:37:31;;;;;;;1999.90;999.90;;;15.40;99.90;;;;;;5076266;28;20467;-77
2023/08/09 05:39:57;;;;;;;1999.90;999.90;;;15.70;99.90;;;;;;5075320;28;20423;-78
2023/08/09 05:42:23;;;;;;;1999.90;999.90;;;15.70;99.90;;;;;;5075456;28;20175;-78
2023/08/09 05:44:49;;;;;;;1999.90;999.90;;;15.60;99.90;;;;;;5075203;28;20656;-78
2023/08/09 05:47:14;;;;;;;1999.90;999.90;;;15.70;99.90;;;;;;5077411;28;20193;-78
2023/08/09 05:49:40;;;;;;;1999.90;999.90;;;15.70;99.90;;;;;;5079637;28;20643;-77
2023/08/09 05:52:06;;;;;;;1999.90;999.90;;;15.70;99.90;;;;;;5063263;28;20176;-78
2023/08/09 05:54:31;;;;;;;1999.90;999.90;;;15.70;99.90;;;;;;5081719;28;20237;-78
2023/08/09 05:56:57;;;;;;;1999.90;999.90;;;15.80;99.90;;;;;;5080802;28;20291;-78
2023/08/09 05:59:22;;;;;;;1999.90;999.90;;;15.80;99.90;;;;;;5080920;28;20163;-78
2023/08/09 06:01:49;;;;;;;1999.90;999.90;;;15.90;99.90;;;;;;5080468;28;20209;-77
2023/08/09 06:04:15;;;;;;;1999.90;999.90;;;15.90;99.90;;;;;;5081211;28;20167;-78
2023/08/09 06:06:40;;;;;;;1999.90;999.90;;;16.00;99.90;;;;;;5081262;28;20405;-78
2023/08/09 06:09:09;;;;;;;1999.90;999.90;;;16.00;99.90;;;;;;5081877;28;20451;-77
2023/08/09 06:11:34;;;;;;;1999.90;999.90;;;16.10;99.90;;;;;;5080485;28;20184;-77
2023/08/09 06:14:00;;;;;;;1999.90;999.90;;;16.20;99.90;;;;;;5080610;28;20410;-78
2023/08/09 06:16:26;;;;;;;1999.90;999.90;;;16.30;99.90;;;;;;5079413;28;20559;-78
2023/08/09 06:18:51;;;;;;;1999.90;999.90;;;16.30;99.90;;;;;;5079931;28;20175;-78
2023/08/09 06:21:17;;;;;;;1999.90;999.90;;;16.40;99.90;;;;;;5078521;28;20699;-77
2023/08/09 06:23:42;;;;;;;1999.90;999.90;;;16.40;99.90;;;;;;5078818;28;20182;-77
2023/08/09 06:26:08;;;;;;;1999.90;999.90;;;16.40;99.90;;;;;;5077550;28;20193;-77
2023/08/09 06:28:33;;;;;;;1999.90;999.90;;;16.50;99.90;;;;;;5072365;28;20197;-78
2023/08/09 06:30:59;;;;;;;1999.90;999.90;;;16.50;99.90;;;;;;5079230;28;20229;-77
2023/08/09 06:33:25;;;;;;;1999.90;999.90;;;16.50;99.90;;;;;;5080081;28;20174;-78
2023/08/09 06:35:50;;;;;;;1999.90;999.90;;;16.50;99.90;;;;;;5077275;28;20184;-78
2023/08/09 06:38:16;;;;;;;1999.90;999.90;;;16.50;99.90;;;;;;5066963;28;20666;-78
2023/08/09 06:40:42;;;;;;;1999.90;999.90;;;16.50;99.90;;;;;;5077898;28;20195;-78
2023/08/09 06:43:07;;;;;;;1999.90;999.90;;;16.60;99.90;;;;;;5061544;28;20188;-78
2023/08/09 06:45:33;;;;;;;1999.90;999.90;;;16.60;99.90;;;;;;5080190;28;20409;-78
2023/08/09 06:47:59;;;;;;;1999.90;999.90;;;16.70;99.90;;;;;;5080046;28;20188;-78
2023/08/09 06:50:26;;;;;;;1999.90;999.90;;;16.80;99.90;;;;;;5079899;28;20432;-78
2023/08/09 06:52:52;;;;;;;1999.90;999.90;;;16.90;99.90;;;;;;5077849;28;20170;-78
2023/08/09 06:55:18;;;;;;;1999.90;999.90;;;17.00;99.90;;;;;;5077374;28;20401;-78
2023/08/09 06:57:44;;;;;;;1999.90;999.90;;;17.10;99.90;;;;;;5074518;28;20191;-77
2023/08/09 07:00:16;;;;;;;1999.90;999.90;;;17.20;99.90;;;;;;5074222;28;20461;-77
2023/08/09 07:02:45;;;;;;;1999.90;999.90;;;17.20;99.90;;;;;;5073983;28;20652;-77
2023/08/09 07:05:15;;;;;;;1999.90;999.90;;;17.10;99.90;;;;;;5074393;28;20771;-77
2023/08/09 07:07:43;;;;;;;1999.90;999.90;;;17.10;99.90;;;;;;5074230;28;20430;-77
2023/08/09 07:10:10;;;;;;;1999.90;999.90;;;17.20;99.90;;;;;;5074186;28;20430;-77
2023/08/09 07:12:35;;;;;;;1999.90;999.90;;;17.20;99.90;;;;;;5067501;28;20427;-77
2023/08/09 07:15:01;;;;;;;1999.90;999.90;;;17.20;99.90;;;;;;5074837;28;20917;-77
2023/08/09 07:17:28;;;;;;;1999.90;999.90;;;17.30;99.90;;;;;;5071543;28;20557;-77
2023/08/09 07:19:53;;;;;;;1999.90;999.90;;;17.30;99.90;;;;;;5072265;28;20540;-77
2023/08/09 07:22:19;;;;;;;1999.90;999.90;;;17.30;99.90;;;;;;5069811;28;20410;-77
2023/08/09 07:24:44;;;;;;;1999.90;999.90;;;17.40;99.90;;;;;;5070995;28;20534;-78
2023/08/09 07:27:10;;;;;;;1999.90;999.90;;;17.20;99.90;;;;;;5074671;28;20169;-77
2023/08/09 07:29:35;;;;;;;1999.90;999.90;;;17.20;99.90;;;;;;5074682;28;20238;-77
2023/08/09 07:32:01;;;;;;;1999.90;999.90;;;17.10;99.90;;;;;;5072344;28;20197;-77
2023/08/09 07:34:27;;;;;;;1999.90;999.90;;;17.00;99.90;;;;;;5073249;28;20220;-77
2023/08/09 07:36:52;;;;;;;1999.90;999.90;;;16.90;99.90;;;;;;5051697;28;20677;-77
2023/08/09 07:39:18;;;;;;;1999.90;999.90;;;16.90;99.90;;;;;;5057247;28;20200;-77
2023/08/09 07:41:44;;;;;;;1999.90;999.90;;;16.80;99.90;;;;;;5071102;28;20609;-76
2023/08/09 07:44:09;;;;;;;1999.90;999.90;;;16.90;99.90;;;;;;5072312;28;20168;-77
2023/08/09 07:46:35;;;;;;;1999.90;999.90;;;16.80;99.90;;;;;;5072133;28;20417;-77
2023/08/09 07:49:01;;;;;;;1999.90;999.90;;;16.80;99.90;;;;;;5071713;28;20655;-76
2023/08/09 07:51:27;;;;;;;1999.90;999.90;;;16.90;99.90;;;;;;5070943;28;20191;-77
2023/08/09 07:53:53;;;;;;;1999.90;999.90;;;16.90;99.90;;;;;;5071727;28;20404;-76
2023/08/09 07:56:18;;;;;;;1999.90;999.90;;;17.00;99.90;;;;;;5071588;28;20216;-77
2023/08/09 07:58:44;;;;;;;1999.90;999.90;;;17.00;99.90;;;;;;5072053;28;20435;-77
2023/08/09 08:01:10;;;;;;;1999.90;999.90;;;17.00;99.90;;;;;;5070793;28;20205;-77
2023/08/09 08:03:35;;;;;;;1999.90;999.90;;;17.00;99.90;;;;;;5071620;28;20172;-76
2023/08/09 08:06:01;;;;;;;1999.90;999.90;;;17.20;99.90;;;;;;5071744;28;20550;-76
2023/08/09 08:08:27;;;;;;;1999.90;999.90;;;17.30;99.90;;;;;;5070994;28;20279;-76
2023/08/09 08:10:53;;;;;;;1999.90;999.90;;;17.40;99.90;;;;;;5070665;28;20439;-76
2023/08/09 08:13:19;;;;;;;1999.90;999.90;;;17.40;99.90;;;;;;5071064;28;20399;-76
2023/08/09 08:15:45;;;;;;;1999.90;999.90;;;17.40;99.90;;;;;;5071893;28;20166;-77
2023/08/09 08:18:11;;;;;;;1999.90;999.90;;;17.30;99.90;;;;;;5072055;28;20451;-77
2023/08/09 08:20:37;;;;;;;1999.90;999.90;;;17.40;99.90;;;;;;5069255;28;20520;-78
2023/08/09 08:23:06;;;;;;;1999.90;999.90;;;17.40;99.90;;;;;;5074639;28;20169;-78
2023/08/09 08:25:32;;;;;;;1999.90;999.90;;;17.40;99.90;;;;;;5071700;28;20166;-78
2023/08/09 08:27:57;;;;;;;1999.90;999.90;;;17.50;99.90;;;;;;5071267;28;20500;-77
2023/08/09 08:30:23;;;;;;;1999.90;999.90;;;17.50;99.90;;;;;;5073610;28;20468;-76
2023/08/09 08:32:49;;;;;;;1999.90;999.90;;;17.60;99.90;;;;;;5061033;28;20603;-77
2023/08/09 08:35:20;;;;;;;1999.90;999.90;;;17.70;99.90;;;;;;5058194;28;20203;-78
2023/08/09 08:37:47;;;;;;;1999.90;999.90;;;17.90;99.90;;;;;;5073445;28;20464;-78
2023/08/09 08:40:20;;;;;;;1999.90;999.90;;;18.00;99.90;;;;;;5049566;28;20506;-76
2023/08/09 08:42:47;;;;;;;1999.90;999.90;;;18.10;99.90;;;;;;5070476;28;20449;-79
2023/08/09 08:45:15;;;;;;;1999.90;999.90;;;18.20;99.90;;;;;;5073433;28;20470;-78
2023/08/09 08:47:42;;;;;;;1999.90;999.90;;;18.20;99.90;;;;;;5057640;28;21145;-79
2023/08/09 08:50:09;;;;;;;1999.90;999.90;;;18.20;99.90;;;;;;5070277;28;20501;-77
2023/08/09 08:52:39;;;;;;;1999.90;999.90;;;18.30;99.90;;;;;;5051247;28;20427;-77
2023/08/09 08:55:12;;;;;;;1999.90;999.90;;;18.40;99.90;;;;;;5060375;28;20424;-77
2023/08/09 08:57:39;;;;;;;1999.90;999.90;;;18.40;99.90;;;;;;5063056;28;21038;-77
2023/08/09 09:00:16;;;;;;;1999.90;999.90;;;18.50;99.90;;;;;;5048638;28;21052;-77
2023/08/09 09:02:46;;;;;;;1999.90;999.90;;;18.70;99.90;;;;;;5067105;28;20473;-77
2023/08/09 09:05:13;;;;;;;1999.90;999.90;;;18.80;99.90;;;;;;5065865;28;20844;-77
2023/08/09 09:07:39;;;;;;;1999.90;999.90;;;18.90;99.90;;;;;;5067645;28;20419;-77
2023/08/09 09:10:09;;;;;;;1999.90;999.90;;;19.00;99.90;;;;;;5067702;28;20556;-76
2023/08/09 09:12:36;;;;;;;1999.90;999.90;;;19.20;99.90;;;;;;5067006;28;20405;-77
2023/08/09 09:15:06;;;;;;;1999.90;999.90;;;19.20;99.90;;;;;;5045425;28;20432;-77
2023/08/09 09:17:43;;;;;;;1999.90;999.90;;;19.20;99.90;;;;;;5051848;28;20996;-77
2023/08/09 09:20:23;;;;;;;1999.90;999.90;;;19.10;99.90;;;;;;5070604;28;20959;-78
2023/08/09 09:22:49;;;;;;;1999.90;999.90;;;19.00;99.90;;;;;;5070322;28;20406;-77
2023/08/09 09:25:17;;;;;;;1999.90;999.90;;;19.10;99.90;;;;;;5074324;28;20409;-78
2023/08/09 09:27:49;;;;;;;1999.90;999.90;;;19.20;99.90;;;;;;5072644;28;20422;-77
2023/08/09 09:30:15;;;;;;;1999.90;999.90;;;19.20;99.90;;;;;;5074356;28;20926;-77
2023/08/09 09:33:05;;;;;;;1999.90;999.90;;;19.40;99.90;;;;;;5074773;28;20427;-75
2023/08/09 09:35:32;;;;;;;1999.90;999.90;;;19.50;99.90;;;;;;5049657;28;20415;-76
2023/08/09 09:37:59;;;;;;;1999.90;999.90;;;20.00;99.90;;;;;;5098098;22;20545;-69
2023/08/09 09:40:33;;;;;;;1999.90;999.90;;;19.50;99.90;;;;;;5051088;28;20476;-70
2023/08/09 09:43:01;;;;;;;1999.90;999.90;;;19.50;99.90;;;;;;5042454;28;20414;-70
2023/08/09 09:45:28;;;;;;;1999.90;999.90;;;19.70;99.90;;;;;;5047525;28;20475;-72
2023/08/09 09:47:58;;;;;;;1999.90;999.90;;;19.80;99.90;;;;;;5051418;28;20977;-72
2023/08/09 09:50:27;;;;;;;1999.90;999.90;;;19.80;99.90;;;;;;5047124;28;21095;-71
2023/08/09 09:52:54;;;;;;;1999.90;999.90;;;19.90;99.90;;;;;;5054883;28;20494;-71
2023/08/09 09:55:25;;;;;;;1999.90;999.90;;;19.80;99.90;;;;;;5055341;28;20425;-71
2023/08/09 09:57:52;;;;;;;1999.90;999.90;;;19.90;99.90;;;;;;5055089;28;20456;-71
2023/08/09 10:00:20;;;;;;;1999.90;999.90;;;19.90;99.90;;;;;;5055598;28;20448;-72
2023/08/09 10:02:47;;;;;;;1999.90;999.90;;;20.00;99.90;;;;;;5055276;28;20410;-72
2023/08/09 10:05:17;;;;;;;1999.90;999.90;;;20.00;99.90;;;;;;5055626;28;20538;-72
2023/08/09 10:07:44;;;;;;;1999.90;999.90;;;19.90;99.90;;;;;;5053694;28;20423;-71
2023/08/09 10:10:09;;;;;;;1999.90;999.90;;;19.90;99.90;;;;;;5055180;28;20411;-71
2023/08/09 10:12:36;;;;;;;1999.90;999.90;;;19.90;99.90;;;;;;5054630;28;20416;-70
2023/08/09 10:15:04;;;;;;;1999.90;999.90;;;20.00;99.90;;;;;;5055386;28;20177;-71
2023/08/09 10:17:32;;;;;;;1999.90;999.90;;;20.00;99.90;;;;;;5054791;28;20442;-71
2023/08/09 10:20:00;;;;;;;1999.90;999.90;;;20.20;99.90;;;;;;5054658;28;20440;-71
2023/08/09 10:22:26;;;;;;;1999.90;999.90;;;20.20;99.90;;;;;;5055085;28;20491;-71
2023/08/09 10:24:56;;;;;;;1999.90;999.90;;;20.30;99.90;;;;;;5054886;28;20440;-72
2023/08/09 10:27:51;;;;;;;1999.90;999.90;;;20.50;99.90;;;;;;5054956;28;20961;-72
2023/08/09 10:30:25;;;;;;;1999.90;999.90;;;20.60;99.90;;;;;;5054625;28;20966;-72
2023/08/09 10:32:53;;;;;;;1999.90;999.90;;;20.80;99.90;;;;;;5054424;28;20445;-71
2023/08/09 10:35:46;;;;;;;1999.90;999.90;;;21.00;99.90;;;;;;5054083;28;20932;-72
2023/08/09 10:38:18;;;;;;;1999.90;999.90;;;21.20;99.90;;;;;;5054326;28;20853;-72
2023/08/09 10:40:49;;;;;;;1999.90;999.90;;;21.30;99.90;;;;;;5054369;28;20659;-71
2023/08/09 10:43:20;;;;;;;1999.90;999.90;;;21.30;99.90;;;;;;5054739;28;20412;-72
2023/08/09 10:45:48;;;;;;;1999.90;999.90;;;21.40;99.90;;;;;;5055016;28;20823;-72
2023/08/09 10:48:17;;;;;;;1999.90;999.90;;;21.40;99.90;;;;;;5054376;28;20928;-71
2023/08/09 10:50:43;;;;;;;1999.90;999.90;;;21.50;99.90;;;;;;5054167;28;20407;-71
2023/08/09 10:53:09;;;;;;;1999.90;999.90;;;21.60;99.90;;;;;;5054001;28;20777;-71
2023/08/09 10:55:35;;;;;;;1999.90;999.90;;;21.80;99.90;;;;;;5054190;28;20741;-71
2023/08/09 10:58:01;;;;;;;1999.90;999.90;;;22.10;99.90;;;;;;5054068;28;20198;-71
2023/08/09 11:00:35;;;;;;;1999.90;999.90;;;22.40;99.90;;;;;;5055202;28;20406;-72
2023/08/09 11:03:01;;;;;;;1999.90;999.90;;;22.60;99.90;;;;;;5055601;28;20399;-72
2023/08/09 11:05:30;;;;;;;1999.90;999.90;;;22.80;99.90;;;;;;5052742;28;20404;-72
2023/08/09 11:08:08;;;;;;;1999.90;999.90;;;22.80;99.90;;;;;;5053726;28;20637;-72
2023/08/09 11:10:41;;;;;;;1999.90;999.90;;;23.00;99.90;;;;;;5053557;28;20844;-72
2023/08/09 11:13:12;;;;;;;1999.90;999.90;;;23.10;99.90;;;;;;5052890;28;20909;-71
2023/08/09 11:15:43;;;;;;;1999.90;999.90;;;23.20;99.80;;;;;;5053532;28;20406;-71
2023/08/09 11:18:09;;;;;;;1999.90;999.90;;;23.50;99.90;;;;;;5053229;28;20464;-72
2023/08/09 11:20:34;;;;;;;1999.90;999.90;;;23.60;99.90;;;;;;5052873;28;20414;-72
2023/08/09 11:23:02;;;;;;;1999.90;999.90;;;23.50;98.90;;;;;;5053019;28;20213;-72
2023/08/09 11:25:29;;;;;;;1999.90;999.90;;;23.70;98.20;;;;;;5053326;28;20174;-72
2023/08/09 11:27:57;;;;;;;1999.90;999.90;;;23.70;97.50;;;;;;5052607;28;20449;-72
2023/08/09 11:30:24;;;;;;;1999.90;999.90;;;24.00;95.20;;;;;;5053067;28;20422;-72
2023/08/09 11:33:01;;;;;;;1999.90;999.90;;;24.00;97.40;;;;;;5052728;28;20479;-72
2023/08/09 11:35:32;;;;;;;1999.90;999.90;;;23.90;96.10;;;;;;5052741;28;21132;-72
2023/08/09 11:37:58;;;;;;;1999.90;999.90;;;23.70;93.10;;;;;;5052932;28;20503;-72
2023/08/09 11:40:25;;;;;;;1999.90;999.90;;;23.60;94.30;;;;;;5052983;28;20401;-72
2023/08/09 11:42:55;;;;;;;1999.90;999.90;;;23.60;95.10;;;;;;5052280;28;20166;-71
2023/08/09 11:45:21;;;;;;;1999.90;999.90;;;24.00;93.90;;;;;;5052785;28;20768;-71
2023/08/09 11:47:53;;;;;;;1999.90;999.90;;;23.80;94.60;;;;;;5051923;28;20401;-71
2023/08/09 11:50:24;;;;;;;1999.90;999.90;;;23.70;95.70;;;;;;5050503;28;20168;-72
2023/08/09 11:52:54;;;;;;;1999.90;999.90;;;23.80;97.50;;;;;;5043081;28;20411;-72
2023/08/09 11:55:23;;;;;;;1999.90;999.90;;;24.10;98.80;;;;;;5054476;28;20402;-71
2023/08/09 11:57:50;;;;;;;1999.90;999.90;;;24.40;93.30;;;;;;5052661;28;20457;-72